sensor_id;sensor_type;location;lat;lon;timestamp;pressure;altitude;pressure_sealevel;temperature;humidity
59190;BME280;50749;51.636;4.948;2023-02-20T00:00:20;102638.53;;;17.63;55.09
59190;BME280;50749;51.636;4.948;2023-02-20T00:03:07;102631.38;;;17.62;55.15
59190;BME280;50749;51.636;4.948;2023-02-20T00:05:33;102636.91;;;17.62;55.02
59190;BME280;50749;51.636;4.948;2023-02-20T00:07:59;102639.16;;;17.60;54.71
59190;BME280;50749;51.636;4.948;2023-02-20T00:10:25;102627.28;;;17.59;55.18
59190;BME280;50749;51.636;4.948;2023-02-20T00:12:51;102627.28;;;17.59;55.34
59190;BME280;50749;51.636;4.948;2023-02-20T00:15:19;102628.38;;;17.58;55.15
59190;BME280;50749;51.636;4.948;2023-02-20T00:17:46;102622.06;;;17.58;55.32
59190;BME280;50749;51.636;4.948;2023-02-20T00:20:17;102622.06;;;17.58;54.97
59190;BME280;50749;51.636;4.948;2023-02-20T00:22:43;102611.28;;;17.56;55.17
59190;BME280;50749;51.636;4.948;2023-02-20T00:25:09;102609.38;;;17.57;55.31
59190;BME280;50749;51.636;4.948;2023-02-20T00:27:35;102608.84;;;17.55;55.22
59190;BME280;50749;51.636;4.948;2023-02-20T00:30:03;102596.16;;;17.54;55.43
59190;BME280;50749;51.636;4.948;2023-02-20T00:32:29;102582.34;;;17.54;54.99
59190;BME280;50749;51.636;4.948;2023-02-20T00:34:55;102574.03;;;17.54;55.36
59190;BME280;50749;51.636;4.948;2023-02-20T00:37:20;102579.56;;;17.54;55.35
59190;BME280;50749;51.636;4.948;2023-02-20T00:39:46;102577.13;;;17.52;54.85
59190;BME280;50749;51.636;4.948;2023-02-20T00:42:12;102586.53;;;17.51;55.43
59190;BME280;50749;51.636;4.948;2023-02-20T00:44:38;102571.91;;;17.51;55.13
59190;BME280;50749;51.636;4.948;2023-02-20T00:47:04;102563.09;;;17.49;55.42
59190;BME280;50749;51.636;4.948;2023-02-20T00:49:30;102567.78;;;17.48;55.21
59190;BME280;50749;51.636;4.948;2023-02-20T00:51:56;102563.41;;;17.47;55.22
59190;BME280;50749;51.636;4.948;2023-02-20T00:54:21;102560.97;;;17.45;55.05
59190;BME280;50749;51.636;4.948;2023-02-20T00:56:47;102559.31;;;17.44;55.06
59190;BME280;50749;51.636;4.948;2023-02-20T00:59:13;102558.50;;;17.44;55.28
59190;BME280;50749;51.636;4.948;2023-02-20T01:01:39;102553.28;;;17.42;55.00
59190;BME280;50749;51.636;4.948;2023-02-20T01:04:05;102563.22;;;17.43;55.42
59190;BME280;50749;51.636;4.948;2023-02-20T01:06:31;102559.13;;;17.41;55.02
59190;BME280;50749;51.636;4.948;2023-02-20T01:08:57;102559.94;;;17.41;55.18
59190;BME280;50749;51.636;4.948;2023-02-20T01:11:22;102559.13;;;17.41;55.26
59190;BME280;50749;51.636;4.948;2023-02-20T01:13:48;102563.84;;;17.40;55.42
59190;BME280;50749;51.636;4.948;2023-02-20T01:16:14;102564.66;;;17.41;54.99
59190;BME280;50749;51.636;4.948;2023-02-20T01:18:40;102567.72;;;17.39;54.91
59190;BME280;50749;51.636;4.948;2023-02-20T01:21:06;102567.25;;;17.37;55.30
59190;BME280;50749;51.636;4.948;2023-02-20T01:23:32;102570.31;;;17.36;55.15
59190;BME280;50749;51.636;4.948;2023-02-20T01:25:57;102578.28;;;17.37;55.22
59190;BME280;50749;51.636;4.948;2023-02-20T01:28:24;102569.19;;;17.37;55.35
59190;BME280;50749;51.636;4.948;2023-02-20T01:30:49;102568.34;;;17.36;55.08
59190;BME280;50749;51.636;4.948;2023-02-20T01:33:15;102559.56;;;17.34;55.30
59190;BME280;50749;51.636;4.948;2023-02-20T01:35:41;102546.88;;;17.33;55.07
59190;BME280;50749;51.636;4.948;2023-02-20T01:38:07;102548.50;;;17.34;55.30
59190;BME280;50749;51.636;4.948;2023-02-20T01:40:33;102540.53;;;17.33;55.37
59190;BME280;50749;51.636;4.948;2023-02-20T01:43:01;102546.88;;;17.33;54.99
59190;BME280;50749;51.636;4.948;2023-02-20T01:45:32;102540.84;;;17.31;55.24
59190;BME280;50749;51.636;4.948;2023-02-20T01:47:59;102538.06;;;17.31;55.09
59190;BME280;50749;51.636;4.948;2023-02-20T01:50:29;102533.69;;;17.30;55.08
59190;BME280;50749;51.636;4.948;2023-02-20T01:53:00;102529.28;;;17.29;55.01
59190;BME280;50749;51.636;4.948;2023-02-20T01:55:50;102529.28;;;17.29;55.09
59190;BME280;50749;51.636;4.948;2023-02-20T01:58:26;102511.03;;;17.28;55.30
59190;BME280;50749;51.636;4.948;2023-02-20T02:00:53;102507.47;;;17.27;55.23
59190;BME280;50749;51.636;4.948;2023-02-20T02:03:23;102495.63;;;17.27;55.35
59190;BME280;50749;51.636;4.948;2023-02-20T02:05:53;102499.50;;;17.26;55.30
59190;BME280;50749;51.636;4.948;2023-02-20T02:08:21;102501.44;;;17.25;55.21
59190;BME280;50749;51.636;4.948;2023-02-20T02:11:05;102495.13;;;17.25;55.30
59190;BME280;50749;51.636;4.948;2023-02-20T02:13:33;102491.19;;;17.26;55.00
59190;BME280;50749;51.636;4.948;2023-02-20T02:27:20;102475.56;;;17.21;55.04
59190;BME280;50749;51.636;4.948;2023-02-20T02:35:19;102471.50;;;17.19;55.21
59190;BME280;50749;51.636;4.948;2023-02-20T02:40:45;102448.88;;;17.17;55.09
59190;BME280;50749;51.636;4.948;2023-02-20T02:44:20;102452.75;;;17.16;55.28
59190;BME280;50749;51.636;4.948;2023-02-20T02:46:43;102440.09;;;17.15;55.06
59190;BME280;50749;51.636;4.948;2023-02-20T02:49:55;102437.34;;;17.15;55.31
59190;BME280;50749;51.636;4.948;2023-02-20T02:52:13;102432.91;;;17.14;54.93
59190;BME280;50749;51.636;4.948;2023-02-20T02:54:59;102427.41;;;17.14;54.97
59190;BME280;50749;51.636;4.948;2023-02-20T02:57:26;102428.50;;;17.13;55.13
59190;BME280;50749;51.636;4.948;2023-02-20T02:59:56;102422.19;;;17.12;54.98
59190;BME280;50749;51.636;4.948;2023-02-20T03:02:24;102426.91;;;17.12;54.88
59190;BME280;50749;51.636;4.948;2023-02-20T03:04:53;102421.69;;;17.10;55.21
59190;BME280;50749;51.636;4.948;2023-02-20T03:07:21;102422.81;;;17.09;54.95
59190;BME280;50749;51.636;4.948;2023-02-20T03:09:59;102421.19;;;17.08;54.93
59190;BME280;50749;51.636;4.948;2023-02-20T03:12:28;102417.28;;;17.09;55.26
59190;BME280;50749;51.636;4.948;2023-02-20T03:15:02;102414.81;;;17.07;55.22
59190;BME280;50749;51.636;4.948;2023-02-20T03:18:02;102414.81;;;17.07;55.13
59190;BME280;50749;51.636;4.948;2023-02-20T03:20:44;102411.25;;;17.07;54.80
59190;BME280;50749;51.636;4.948;2023-02-20T03:23:23;102414.31;;;17.05;54.85
59190;BME280;50749;51.636;4.948;2023-02-20T03:25:59;102415.97;;;17.06;54.90
59190;BME280;50749;51.636;4.948;2023-02-20T03:30:59;102412.69;;;17.04;54.99
59190;BME280;50749;51.636;4.948;2023-02-20T03:33:44;102416.28;;;17.05;55.42
59190;BME280;50749;51.636;4.948;2023-02-20T03:36:36;102411.88;;;17.04;55.35
59190;BME280;50749;51.636;4.948;2023-02-20T03:39:26;102409.91;;;17.04;55.47
59190;BME280;50749;51.636;4.948;2023-02-20T03:42:14;102410.22;;;17.03;55.16
59190;BME280;50749;51.636;4.948;2023-02-20T03:45:03;102411.38;;;17.02;54.99
59190;BME280;50749;51.636;4.948;2023-02-20T03:47:30;102417.72;;;17.02;55.12
59190;BME280;50749;51.636;4.948;2023-02-20T03:49:59;102429.56;;;17.03;54.97
59190;BME280;50749;51.636;4.948;2023-02-20T03:52:26;102414.16;;;17.02;54.86
59190;BME280;50749;51.636;4.948;2023-02-20T03:54:52;102422.75;;;17.00;55.14
59190;BME280;50749;51.636;4.948;2023-02-20T03:57:25;102419.97;;;17.00;54.92
59190;BME280;50749;51.636;4.948;2023-02-20T04:00:02;102411.69;;;17.00;55.18
59190;BME280;50749;51.636;4.948;2023-02-20T04:02:35;102420.28;;;16.99;54.82
59190;BME280;50749;51.636;4.948;2023-02-20T04:05:06;102421.09;;;16.99;55.01
59190;BME280;50749;51.636;4.948;2023-02-20T04:07:38;102410.06;;;16.99;55.28
59190;BME280;50749;51.636;4.948;2023-02-20T04:10:08;102417.22;;;17.00;55.88
59190;BME280;50749;51.636;4.948;2023-02-20T04:12:38;102416.09;;;17.01;56.00
59190;BME280;50749;51.636;4.948;2023-02-20T04:15:07;102426.81;;;17.03;56.07
59190;BME280;50749;51.636;4.948;2023-02-20T04:17:45;102427.03;;;17.06;56.02
59190;BME280;50749;51.636;4.948;2023-02-20T04:20:13;102418.91;;;17.10;55.77
59190;BME280;50749;51.636;4.948;2023-02-20T04:22:42;102410.50;;;17.15;55.57
59190;BME280;50749;51.636;4.948;2023-02-20T04:25:30;102423.88;;;17.22;55.34
59190;BME280;50749;51.636;4.948;2023-02-20T04:28:01;102417.72;;;17.25;55.06
59190;BME280;50749;51.636;4.948;2023-02-20T04:30:27;102420.53;;;17.34;55.06
59190;BME280;50749;51.636;4.948;2023-02-20T04:32:53;102417.63;;;17.39;54.93
59190;BME280;50749;51.636;4.948;2023-02-20T04:35:20;102409.53;;;17.42;54.69
59190;BME280;50749;51.636;4.948;2023-02-20T04:37:46;102414.91;;;17.48;54.96
59190;BME280;50749;51.636;4.948;2023-02-20T04:40:14;102411.22;;;17.52;54.68
59190;BME280;50749;51.636;4.948;2023-02-20T04:42:40;102419.69;;;17.56;55.00
59190;BME280;50749;51.636;4.948;2023-02-20T04:45:06;102410.75;;;17.59;54.79
59190;BME280;50749;51.636;4.948;2023-02-20T04:47:32;102413.38;;;17.64;54.38
59190;BME280;50749;51.636;4.948;2023-02-20T04:49:58;102414.38;;;17.68;54.78
59190;BME280;50749;51.636;4.948;2023-02-20T04:52:24;102423.19;;;17.70;54.76
59190;BME280;50749;51.636;4.948;2023-02-20T04:54:50;102419.44;;;17.75;54.56
59190;BME280;50749;51.636;4.948;2023-02-20T04:57:17;102416.53;;;17.80;54.84
59190;BME280;50749;51.636;4.948;2023-02-20T04:59:43;102420.00;;;17.86;54.72
59190;BME280;50749;51.636;4.948;2023-02-20T05:02:09;102416.63;;;17.89;54.71
59190;BME280;50749;51.636;4.948;2023-02-20T05:04:35;102419.25;;;17.94;54.59
59190;BME280;50749;51.636;4.948;2023-02-20T05:07:01;102413.56;;;17.99;54.54
59190;BME280;50749;51.636;4.948;2023-02-20T05:09:27;102425.63;;;18.03;54.70
59190;BME280;50749;51.636;4.948;2023-02-20T05:11:53;102414.72;;;18.07;54.48
59190;BME280;50749;51.636;4.948;2023-02-20T05:14:20;102411.63;;;18.08;54.50
59190;BME280;50749;51.636;4.948;2023-02-20T05:16:47;102421.25;;;18.11;54.82
59190;BME280;50749;51.636;4.948;2023-02-20T05:19:14;102426.47;;;18.12;54.92
59190;BME280;50749;51.636;4.948;2023-02-20T05:21:43;102423.03;;;18.15;54.96
59190;BME280;50749;51.636;4.948;2023-02-20T05:24:28;102423.22;;;18.19;55.11
59190;BME280;50749;51.636;4.948;2023-02-20T05:26:55;102420.94;;;18.21;54.98
59190;BME280;50749;51.636;4.948;2023-02-20T05:29:21;102420.63;;;18.23;54.84
59190;BME280;50749;51.636;4.948;2023-02-20T05:31:47;102423.09;;;18.24;54.87
59190;BME280;50749;51.636;4.948;2023-02-20T05:34:13;102416.38;;;18.25;55.11
59190;BME280;50749;51.636;4.948;2023-02-20T05:36:39;102415.59;;;18.25;54.79
59190;BME280;50749;51.636;4.948;2023-02-20T05:39:05;102409.03;;;18.20;54.13
59190;BME280;50749;51.636;4.948;2023-02-20T05:41:31;102404.19;;;18.17;54.15
59190;BME280;50749;51.636;4.948;2023-02-20T05:43:57;102415.56;;;18.16;53.51
59190;BME280;50749;51.636;4.948;2023-02-20T05:46:24;102423.34;;;18.14;53.80
59190;BME280;50749;51.636;4.948;2023-02-20T05:48:51;102422.88;;;18.12;54.01
59190;BME280;50749;51.636;4.948;2023-02-20T05:51:27;102412.63;;;18.12;53.47
59190;BME280;50749;51.636;4.948;2023-02-20T05:53:53;102414.88;;;18.10;53.70
59190;BME280;50749;51.636;4.948;2023-02-20T05:56:20;102408.22;;;18.11;53.81
59190;BME280;50749;51.636;4.948;2023-02-20T05:58:47;102411.97;;;18.15;54.11
59190;BME280;50749;51.636;4.948;2023-02-20T06:01:26;102415.72;;;18.19;54.02
59190;BME280;50749;51.636;4.948;2023-02-20T06:03:53;102415.91;;;18.23;54.04
59190;BME280;50749;51.636;4.948;2023-02-20T06:06:19;102418.84;;;18.27;54.12
59190;BME280;50749;51.636;4.948;2023-02-20T06:08:46;102423.09;;;18.33;54.09
59190;BME280;50749;51.636;4.948;2023-02-20T06:11:13;102434.34;;;18.36;53.91
59190;BME280;50749;51.636;4.948;2023-02-20T06:13:42;102428.97;;;18.40;53.85
59190;BME280;50749;51.636;4.948;2023-02-20T06:16:08;102437.75;;;18.42;54.17
59190;BME280;50749;51.636;4.948;2023-02-20T06:18:42;102435.50;;;18.44;53.93
59190;BME280;50749;51.636;4.948;2023-02-20T06:21:09;102439.41;;;18.43;53.99
59190;BME280;50749;51.636;4.948;2023-02-20T06:23:37;102448.19;;;18.45;53.75
59190;BME280;50749;51.636;4.948;2023-02-20T06:26:04;102439.56;;;18.47;53.78
59190;BME280;50749;51.636;4.948;2023-02-20T06:28:30;102441.22;;;18.48;54.28
59190;BME280;50749;51.636;4.948;2023-02-20T06:30:55;102428.97;;;18.49;54.05
59190;BME280;50749;51.636;4.948;2023-02-20T06:33:22;102434.19;;;18.50;54.09
59190;BME280;50749;51.636;4.948;2023-02-20T06:35:47;102434.69;;;18.52;54.31
59190;BME280;50749;51.636;4.948;2023-02-20T06:38:13;102428.00;;;18.53;54.31
59190;BME280;50749;51.636;4.948;2023-02-20T06:40:39;102424.44;;;18.53;54.06
59190;BME280;50749;51.636;4.948;2023-02-20T06:43:05;102424.13;;;18.54;53.73
59190;BME280;50749;51.636;4.948;2023-02-20T06:45:31;102431.59;;;18.54;54.02
59190;BME280;50749;51.636;4.948;2023-02-20T06:47:57;102435.19;;;18.54;54.08
59190;BME280;50749;51.636;4.948;2023-02-20T06:50:23;102426.88;;;18.54;54.07
59190;BME280;50749;51.636;4.948;2023-02-20T06:52:49;102419.06;;;18.56;53.71
59190;BME280;50749;51.636;4.948;2023-02-20T06:55:14;102432.91;;;18.56;53.99
59190;BME280;50749;51.636;4.948;2023-02-20T06:57:40;102417.91;;;18.57;53.95
59190;BME280;50749;51.636;4.948;2023-02-20T07:00:06;102427.38;;;18.56;54.01
59190;BME280;50749;51.636;4.948;2023-02-20T07:02:33;102426.56;;;18.56;54.30
59190;BME280;50749;51.636;4.948;2023-02-20T07:05:03;102422.63;;;18.57;54.05
59190;BME280;50749;51.636;4.948;2023-02-20T07:07:29;102424.28;;;18.58;54.09
59190;BME280;50749;51.636;4.948;2023-02-20T07:09:55;102423.44;;;18.57;54.04
59190;BME280;50749;51.636;4.948;2023-02-20T07:12:21;102417.91;;;18.57;54.21
59190;BME280;50749;51.636;4.948;2023-02-20T07:14:50;102411.22;;;18.59;53.89
59190;BME280;50749;51.636;4.948;2023-02-20T07:17:16;102421.19;;;18.60;53.75
59190;BME280;50749;51.636;4.948;2023-02-20T07:19:42;102422.00;;;18.60;53.83
59190;BME280;50749;51.636;4.948;2023-02-20T07:22:07;102419.53;;;18.59;53.83
59190;BME280;50749;51.636;4.948;2023-02-20T07:24:33;102422.31;;;18.59;53.71
59190;BME280;50749;51.636;4.948;2023-02-20T07:27:01;102422.63;;;18.57;53.76
59190;BME280;50749;51.636;4.948;2023-02-20T07:29:27;102424.13;;;18.54;53.79
59190;BME280;50749;51.636;4.948;2023-02-20T07:31:53;102423.59;;;18.52;53.84
59190;BME280;50749;51.636;4.948;2023-02-20T07:34:19;102430.28;;;18.51;53.61
59190;BME280;50749;51.636;4.948;2023-02-20T07:36:45;102428.16;;;18.48;53.83
59190;BME280;50749;51.636;4.948;2023-02-20T07:39:12;102431.56;;;18.45;53.98
59190;BME280;50749;51.636;4.948;2023-02-20T07:41:38;102439.09;;;18.45;54.15
59190;BME280;50749;51.636;4.948;2023-02-20T07:44:04;102429.78;;;18.41;54.30
59190;BME280;50749;51.636;4.948;2023-02-20T07:46:30;102434.03;;;18.38;54.24
59190;BME280;50749;51.636;4.948;2023-02-20T07:49:03;102435.78;;;18.34;54.05
59190;BME280;50749;51.636;4.948;2023-02-20T07:51:30;102432.53;;;18.32;54.11
59190;BME280;50749;51.636;4.948;2023-02-20T07:53:56;102432.53;;;18.32;54.22
59190;BME280;50749;51.636;4.948;2023-02-20T07:56:22;102427.00;;;18.32;53.81
59190;BME280;50749;51.636;4.948;2023-02-20T07:58:49;102428.16;;;18.31;53.90
59190;BME280;50749;51.636;4.948;2023-02-20T08:01:15;102431.56;;;18.28;54.01
59190;BME280;50749;51.636;4.948;2023-02-20T08:03:41;102426.66;;;18.25;54.09
59190;BME280;50749;51.636;4.948;2023-02-20T08:06:07;102425.16;;;18.18;54.03
59190;BME280;50749;51.636;4.948;2023-02-20T08:08:33;102424.69;;;18.16;53.26
59190;BME280;50749;51.636;4.948;2023-02-20T08:11:00;102430.03;;;18.13;53.21
59190;BME280;50749;51.636;4.948;2023-02-20T08:13:26;102433.13;;;18.11;53.65
59190;BME280;50749;51.636;4.948;2023-02-20T08:15:52;102424.81;;;18.11;53.42
59190;BME280;50749;51.636;4.948;2023-02-20T08:18:18;102435.41;;;18.09;53.86
59190;BME280;50749;51.636;4.948;2023-02-20T08:20:44;102431.31;;;18.07;53.82
59190;BME280;50749;51.636;4.948;2023-02-20T08:23:18;102433.28;;;18.06;54.24
59190;BME280;50749;51.636;4.948;2023-02-20T08:25:45;102433.28;;;18.06;54.38
59190;BME280;50749;51.636;4.948;2023-02-20T08:28:11;102436.03;;;18.06;54.38
59190;BME280;50749;51.636;4.948;2023-02-20T08:30:37;102438.81;;;18.06;54.02
59190;BME280;50749;51.636;4.948;2023-02-20T08:33:03;102439.94;;;18.05;54.31
59190;BME280;50749;51.636;4.948;2023-02-20T08:35:31;102443.84;;;18.04;54.07
59190;BME280;50749;51.636;4.948;2023-02-20T08:38:05;102437.50;;;18.04;54.25
59190;BME280;50749;51.636;4.948;2023-02-20T08:40:32;102435.03;;;18.02;54.19
59190;BME280;50749;51.636;4.948;2023-02-20T08:42:58;102431.94;;;18.04;54.00
59190;BME280;50749;51.636;4.948;2023-02-20T08:45:24;102441.91;;;18.05;53.82
59190;BME280;50749;51.636;4.948;2023-02-20T08:47:55;102430.03;;;18.04;53.87
59190;BME280;50749;51.636;4.948;2023-02-20T08:50:21;102431.16;;;18.03;53.96
59190;BME280;50749;51.636;4.948;2023-02-20T08:52:47;102428.69;;;18.01;53.93
59190;BME280;50749;51.636;4.948;2023-02-20T08:55:13;102438.31;;;18.04;53.80
59190;BME280;50749;51.636;4.948;2023-02-20T08:57:42;102427.25;;;18.04;54.13
59190;BME280;50749;51.636;4.948;2023-02-20T09:00:12;102423.34;;;18.05;53.80
59190;BME280;50749;51.636;4.948;2023-02-20T09:02:38;102429.19;;;18.04;53.81
59190;BME280;50749;51.636;4.948;2023-02-20T09:05:04;102420.06;;;18.03;53.42
59190;BME280;50749;51.636;4.948;2023-02-20T09:07:30;102424.81;;;18.03;53.72
59190;BME280;50749;51.636;4.948;2023-02-20T09:09:56;102419.09;;;17.99;53.77
59190;BME280;50749;51.636;4.948;2023-02-20T09:12:21;102419.41;;;17.97;53.47
59190;BME280;50749;51.636;4.948;2023-02-20T09:14:47;102417.78;;;17.96;53.36
59190;BME280;50749;51.636;4.948;2023-02-20T09:17:13;102438.63;;;17.94;53.70
59190;BME280;50749;51.636;4.948;2023-02-20T09:19:39;102428.66;;;17.93;53.33
59190;BME280;50749;51.636;4.948;2023-02-20T09:22:05;102434.53;;;17.91;53.30
59190;BME280;50749;51.636;4.948;2023-02-20T09:24:31;102430.13;;;17.90;53.19
59190;BME280;50749;51.636;4.948;2023-02-20T09:27:02;102436.81;;;17.89;53.53
59190;BME280;50749;51.636;4.948;2023-02-20T09:29:31;102432.69;;;17.87;53.51
59190;BME280;50749;51.636;4.948;2023-02-20T09:31:57;102429.09;;;17.86;53.32
59190;BME280;50749;51.636;4.948;2023-02-20T09:34:23;102423.88;;;17.85;53.58
59190;BME280;50749;51.636;4.948;2023-02-20T09:36:48;102417.88;;;17.82;53.36
59190;BME280;50749;51.636;4.948;2023-02-20T09:39:14;102411.53;;;17.82;53.08
59190;BME280;50749;51.636;4.948;2023-02-20T09:47:25;102399.75;;;17.76;53.41
59190;BME280;50749;51.636;4.948;2023-02-20T09:50:02;102404.00;;;17.74;53.22
59190;BME280;50749;51.636;4.948;2023-02-20T09:52:29;102407.09;;;17.72;53.31
59190;BME280;50749;51.636;4.948;2023-02-20T09:55:05;102408.19;;;17.71;53.19
59190;BME280;50749;51.636;4.948;2023-02-20T09:57:34;102405.44;;;17.71;53.23
59190;BME280;50749;51.636;4.948;2023-02-20T10:00:05;102407.72;;;17.69;53.50
59190;BME280;50749;51.636;4.948;2023-02-20T10:02:50;102417.97;;;17.69;53.69
59190;BME280;50749;51.636;4.948;2023-02-20T10:05:24;102418.28;;;17.67;53.55
59190;BME280;50749;51.636;4.948;2023-02-20T10:07:51;102413.88;;;17.66;53.45
59190;BME280;50749;51.636;4.948;2023-02-20T10:18:41;102437.25;;;17.60;53.45
59190;BME280;50749;51.636;4.948;2023-02-20T10:21:18;102438.72;;;17.57;53.50
59190;BME280;50749;51.636;4.948;2023-02-20T10:24:06;102450.91;;;17.56;53.44
59190;BME280;50749;51.636;4.948;2023-02-20T10:26:45;102451.75;;;17.57;53.72
59190;BME280;50749;51.636;4.948;2023-02-20T10:29:19;102452.06;;;17.55;53.82
59190;BME280;50749;51.636;4.948;2023-02-20T10:31:48;102452.88;;;17.56;53.96
59190;BME280;50749;51.636;4.948;2023-02-20T10:34:21;102452.38;;;17.54;53.60
59190;BME280;50749;51.636;4.948;2023-02-20T10:36:55;102453.50;;;17.53;53.91
59190;BME280;50749;51.636;4.948;2023-02-20T10:39:25;102449.63;;;17.54;54.12
59190;BME280;50749;51.636;4.948;2023-02-20T10:42:24;102441.31;;;17.54;54.20
59190;BME280;50749;51.636;4.948;2023-02-20T10:45:05;102440.47;;;17.53;54.08
59190;BME280;50749;51.636;4.948;2023-02-20T10:47:49;102434.63;;;17.55;54.26
59190;BME280;50749;51.636;4.948;2023-02-20T10:55:58;102441.31;;;17.54;54.46
59190;BME280;50749;51.636;4.948;2023-02-20T11:01:08;102457.91;;;17.54;54.33
59190;BME280;50749;51.636;4.948;2023-02-20T11:03:53;102447.97;;;17.53;54.44
59190;BME280;50749;51.636;4.948;2023-02-20T11:06:28;102441.94;;;17.51;54.28
59190;BME280;50749;51.636;4.948;2023-02-20T11:08:54;102453.00;;;17.51;54.60
59190;BME280;50749;51.636;4.948;2023-02-20T11:11:37;102446.97;;;17.49;54.45
59190;BME280;50749;51.636;4.948;2023-02-20T11:16:59;102424.34;;;17.46;54.38
59190;BME280;50749;51.636;4.948;2023-02-20T11:19:45;102439.81;;;17.48;54.17
59190;BME280;50749;51.636;4.948;2023-02-20T11:22:13;102446.47;;;17.46;54.21
59190;BME280;50749;51.636;4.948;2023-02-20T11:24:40;102442.06;;;17.45;54.57
59190;BME280;50749;51.636;4.948;2023-02-20T11:27:22;102448.09;;;17.48;54.49
59190;BME280;50749;51.636;4.948;2023-02-20T11:30:03;102433.78;;;17.45;54.55
59190;BME280;50749;51.636;4.948;2023-02-20T11:32:35;102432.31;;;17.48;54.81
59190;BME280;50749;51.636;4.948;2023-02-20T11:37:40;102411.53;;;17.51;54.51
59190;BME280;50749;51.636;4.948;2023-02-20T11:40:20;102421.47;;;17.52;54.85
59190;BME280;50749;51.636;4.948;2023-02-20T11:42:48;102405.69;;;17.52;54.99
59190;BME280;50749;51.636;4.948;2023-02-20T11:45:22;102399.00;;;17.53;54.94
59190;BME280;50749;51.636;4.948;2023-02-20T11:48:12;102382.94;;;17.55;54.64
59190;BME280;50749;51.636;4.948;2023-02-20T11:50:40;102377.09;;;17.57;54.61
59190;BME280;50749;51.636;4.948;2023-02-20T11:53:17;102374.31;;;17.57;54.81
59190;BME280;50749;51.636;4.948;2023-02-20T11:55:43;102376.25;;;17.56;54.60
59190;BME280;50749;51.636;4.948;2023-02-20T11:58:23;102383.09;;;17.59;54.45
59190;BME280;50749;51.636;4.948;2023-02-20T12:00:51;102379.19;;;17.60;54.34
59190;BME280;50749;51.636;4.948;2023-02-20T12:05:48;102371.41;;;17.62;54.58
59190;BME280;50749;51.636;4.948;2023-02-20T12:11:24;102357.59;;;17.62;54.21
59190;BME280;50749;51.636;4.948;2023-02-20T12:13:53;102356.75;;;17.61;54.02
59190;BME280;50749;51.636;4.948;2023-02-20T12:17:33;102348.44;;;17.61;54.41
59190;BME280;50749;51.636;4.948;2023-02-20T12:19:52;102345.69;;;17.61;54.29
59190;BME280;50749;51.636;4.948;2023-02-20T12:47:15;102315.09;;;17.58;54.01
59190;BME280;50749;51.636;4.948;2023-02-20T12:55:20;102326.66;;;17.60;53.90
59190;BME280;50749;51.636;4.948;2023-02-20T12:58:01;102312.66;;;17.56;54.10
59190;BME280;50749;51.636;4.948;2023-02-20T13:00:42;102318.19;;;17.56;54.13
59190;BME280;50749;51.636;4.948;2023-02-20T13:03:23;102313.63;;;17.52;54.35
59190;BME280;50749;51.636;4.948;2023-02-20T13:05:50;102310.88;;;17.52;54.32
59190;BME280;50749;51.636;4.948;2023-02-20T13:08:33;102313.63;;;17.52;54.73
59190;BME280;50749;51.636;4.948;2023-02-20T13:11:09;102302.56;;;17.52;54.64
59190;BME280;50749;51.636;4.948;2023-02-20T13:13:48;102310.03;;;17.51;54.79
59190;BME280;50749;51.636;4.948;2023-02-20T13:19:16;102324.34;;;17.53;54.77
59190;BME280;50749;51.636;4.948;2023-02-20T13:21:45;102326.00;;;17.54;54.74
59190;BME280;50749;51.636;4.948;2023-02-20T13:26:49;102338.88;;;17.59;54.61
59190;BME280;50749;51.636;4.948;2023-02-20T13:29:24;102326.31;;;17.61;54.33
59190;BME280;50749;51.636;4.948;2023-02-20T13:31:54;102321.63;;;17.62;54.40
59190;BME280;50749;51.636;4.948;2023-02-20T13:36:48;102330.41;;;17.64;54.61
59190;BME280;50749;51.636;4.948;2023-02-20T13:39:39;102320.97;;;17.65;54.31
59190;BME280;50749;51.636;4.948;2023-02-20T13:42:34;102321.81;;;17.66;54.43
59190;BME280;50749;51.636;4.948;2023-02-20T13:45:01;102312.19;;;17.63;54.53
59190;BME280;50749;51.636;4.948;2023-02-20T13:47:35;102313.81;;;17.64;54.21
59190;BME280;50749;51.636;4.948;2023-02-20T13:50:26;102287.28;;;17.63;54.38
59190;BME280;50749;51.636;4.948;2023-02-20T13:52:52;102282.91;;;17.62;54.19
59190;BME280;50749;51.636;4.948;2023-02-20T13:55:25;102277.38;;;17.62;54.34
59190;BME280;50749;51.636;4.948;2023-02-20T13:57:54;102267.44;;;17.61;54.43
59190;BME280;50749;51.636;4.948;2023-02-20T14:00:40;102278.38;;;17.66;54.19
59190;BME280;50749;51.636;4.948;2023-02-20T14:05:45;102275.63;;;17.75;54.00
59190;BME280;50749;51.636;4.948;2023-02-20T14:08:20;102263.59;;;17.79;53.88
59190;BME280;50749;51.636;4.948;2023-02-20T14:10:46;102262.63;;;17.84;54.03
59190;BME280;50749;51.636;4.948;2023-02-20T14:13:17;102258.94;;;17.89;53.64
59190;BME280;50749;51.636;4.948;2023-02-20T14:18:33;102265.28;;;17.98;53.56
59190;BME280;50749;51.636;4.948;2023-02-20T14:21:16;102250.78;;;18.01;53.72
59190;BME280;50749;51.636;4.948;2023-02-20T14:23:44;102248.50;;;18.03;53.85
59190;BME280;50749;51.636;4.948;2023-02-20T14:28:52;102257.81;;;18.07;53.67
59190;BME280;50749;51.636;4.948;2023-02-20T14:31:27;102253.56;;;18.10;53.63
59190;BME280;50749;51.636;4.948;2023-02-20T14:33:57;102253.25;;;18.11;53.59
59190;BME280;50749;51.636;4.948;2023-02-20T14:39:28;102248.66;;;18.15;53.86
59190;BME280;50749;51.636;4.948;2023-02-20T14:42:02;102238.09;;;18.17;53.89
59190;BME280;50749;51.636;4.948;2023-02-20T14:44:31;102243.31;;;18.19;53.36
59190;BME280;50749;51.636;4.948;2023-02-20T14:47:06;102242.16;;;18.20;53.67
59190;BME280;50749;51.636;4.948;2023-02-20T14:49:32;102242.31;;;18.24;53.71
59190;BME280;50749;51.636;4.948;2023-02-20T14:52:21;102238.41;;;18.25;53.42